ěÝzenÝ letovÚho provozu ╚eskÚ republiky
Letiste: LKMT Aktualizace: 10.05.2021 06:00:25  UTC
 METAR LKMT 10.05. 06:00 ...
METAR LKMT 100600Z 20010KT CAVOK 17/01 Q1014 NOSIG RMK REG QNH 1008=
 TAF LKMT 10.05. 05:00 ...
TAF LKMT 100500Z 1006/1112 21010KT CAVOK      TEMPO 1008/1018 21018G28KT      TEMPO 1108/1112 19014G24KT=